Newport, North Carolina
Current Conditions -  °F | °C
As of 5:54 PM on Tuesday 27 Jan 2015 (Local Time) from KNKT Reporting Station
Overcast Overcast  
Wind Chill: 31°   Ceiling: 8500
Heat Index: 38°   Visibility: 10mi
Dew Point: 27°   Wind: 9mph
Humidity: 65%   Direction: 320°NW
Pressure: 29.86"   Gusts: NA
Location:  34.79°N, 76.86°W
Report Text: KNKT 272254Z 32008KT 10SM SCT031 OVC085 03/M03 A2986 RMK AO2 SLP108 T00331028 $
Loading
Personal Weather Stations






























Interactive Weather Map New forecast layout! Learn more

10-Day Weather Forecast

Advertisements
Track Severe Weather on mobile